Terminal Aerodrome Forecast
Issued by NWS Amarillo, TX

Home | Current Version | Previous Version | Text Only | Print | Product List | Glossary On
Versions: 1 2 3 4 5 6 7 8 9 10 11 12 13 14 15 16 17 18
039
FTUS44 KAMA 201918 AAA
TAFAMA
TAF AMD
KAMA 201918Z 2019/2118 36014KT P6SM FEW015
     FM202200 04016KT P6SM SCT025 OVC050
     FM210500 03012KT P6SM BKN025=

USA.gov is the U.S. government's official web portal to all federal, state and local government web resources and services.